Time;durP1;ratioP1;P1;durP2;ratioP2;P2;SDS_P1;SDS_P2;PMS_P1;PMS_P2;Temp;Humidity;BMP_temperature;BMP_pressure;BME280_temperature;BME280_humidity;BME280_pressure;Samples;Min_cycle;Max_cycle;Signal;HPM_P1;HPM_P2
2020/12/16 00:00:59;;;;;;;;;;;7.00;99.90;;;;;;5090953;28;19973;-69
2020/12/16 00:03:26;;;;;;;;;;;7.00;99.90;;;;;;5099479;28;20394;-69
2020/12/16 00:05:52;;;;;;;;;;;7.10;99.90;;;;;;5108239;28;20396;-69
2020/12/16 00:08:18;;;;;;;;;;;7.00;99.90;;;;;;5104525;28;19923;-69
2020/12/16 00:10:44;;;;;;;;;;;7.00;99.90;;;;;;5111552;28;20357;-73
2020/12/16 00:13:10;;;;;;;;;;;7.10;99.90;;;;;;5111714;28;19924;-73
2020/12/16 00:15:36;;;;;;;;;;;7.00;99.90;;;;;;5111852;28;19976;-73
2020/12/16 00:18:02;;;;;;;;;;;7.10;99.90;;;;;;5110733;28;19924;-73
2020/12/16 00:20:29;;;;;;;;;;;7.10;99.90;;;;;;5113165;28;19931;-73
2020/12/16 00:22:55;;;;;;;;;;;7.10;99.90;;;;;;5112255;28;20365;-73
2020/12/16 00:25:21;;;;;;;;;;;7.10;99.90;;;;;;5113353;28;19930;-73
2020/12/16 00:27:47;;;;;;;;;;;7.10;99.90;;;;;;5113264;28;20434;-73
2020/12/16 00:30:13;;;;;;;;;;;7.10;99.90;;;;;;5112032;28;19931;-73
2020/12/16 00:32:40;;;;;;;;;;;7.10;99.90;;;;;;5112790;28;20375;-73
2020/12/16 00:35:06;;;;;;;;;;;7.10;99.90;;;;;;5102346;28;20392;-73
2020/12/16 00:37:35;;;;;;;;;;;7.10;99.90;;;;;;5092636;28;19924;-74
2020/12/16 00:40:01;;;;;;;;;;;7.10;99.90;;;;;;5092743;28;19928;-73
2020/12/16 00:42:27;;;;;;;;;;;7.10;99.90;;;;;;5092330;28;19924;-73
2020/12/16 00:44:53;;;;;;;;;;;7.10;99.90;;;;;;5092412;28;19923;-73
2020/12/16 00:47:19;;;;;;;;;;;7.10;99.90;;;;;;5092613;28;19969;-73
2020/12/16 00:49:45;;;;;;;;;;;7.10;99.90;;;;;;5106383;28;19935;-73
2020/12/16 00:52:11;;;;;;;;;;;7.10;99.90;;;;;;5112704;28;19924;-70
2020/12/16 00:54:38;;;;;;;;;;;7.10;99.90;;;;;;5097557;28;19950;-69
2020/12/16 00:57:04;;;;;;;;;;;7.10;99.90;;;;;;5092483;28;19947;-69
2020/12/16 00:59:30;;;;;;;;;;;7.10;99.90;;;;;;5092435;28;20377;-69
2020/12/16 01:01:56;;;;;;;;;;;7.00;99.90;;;;;;5093178;28;19928;-69
2020/12/16 01:04:22;;;;;;;;;;;7.00;99.90;;;;;;5092948;28;19924;-69
2020/12/16 01:06:48;;;;;;;;;;;7.00;99.90;;;;;;5094945;28;19924;-69
2020/12/16 01:09:14;;;;;;;;;;;7.10;99.90;;;;;;5096666;28;20399;-69
2020/12/16 01:11:40;;;;;;;;;;;7.10;99.90;;;;;;5096391;28;19924;-69
2020/12/16 01:14:07;;;;;;;;;;;7.10;99.90;;;;;;5096140;28;19924;-69
2020/12/16 01:16:33;;;;;;;;;;;7.10;99.90;;;;;;5096361;28;19931;-69
2020/12/16 01:18:59;;;;;;;;;;;7.10;99.90;;;;;;5104056;28;19930;-69
2020/12/16 01:21:25;;;;;;;;;;;7.10;99.90;;;;;;5116548;28;19927;-69
2020/12/16 01:23:51;;;;;;;;;;;7.10;99.90;;;;;;5116155;28;19924;-69
2020/12/16 01:26:17;;;;;;;;;;;7.00;99.90;;;;;;5116658;28;19924;-69
2020/12/16 01:28:44;;;;;;;;;;;7.10;99.90;;;;;;5114303;28;19973;-69
2020/12/16 01:31:10;;;;;;;;;;;7.10;99.90;;;;;;5110142;28;19924;-69
2020/12/16 01:33:36;;;;;;;;;;;7.10;99.90;;;;;;5095807;28;19947;-69
2020/12/16 01:36:02;;;;;;;;;;;7.10;99.90;;;;;;5096072;28;19978;-69
2020/12/16 01:38:28;;;;;;;;;;;7.10;99.90;;;;;;5096216;28;19924;-70
2020/12/16 01:41:01;;;;;;;;;;;7.10;99.90;;;;;;5095998;28;19930;-69
2020/12/16 01:43:33;;;;;;;;;;;7.10;99.90;;;;;;5095696;28;20373;-69
2020/12/16 01:46:00;;;;;;;;;;;7.10;99.90;;;;;;5095844;28;20308;-69
2020/12/16 01:48:26;;;;;;;;;;;7.20;99.90;;;;;;5095650;28;19924;-69
2020/12/16 01:50:52;;;;;;;;;;;7.20;99.90;;;;;;5095504;28;19931;-69
2020/12/16 01:53:19;;;;;;;;;;;7.20;99.90;;;;;;5095499;28;19931;-69
2020/12/16 01:55:45;;;;;;;;;;;7.20;99.90;;;;;;5095614;28;20328;-69
2020/12/16 01:58:13;;;;;;;;;;;7.20;99.90;;;;;;5095656;28;19931;-69
2020/12/16 02:00:39;;;;;;;;;;;7.20;99.90;;;;;;5095123;28;19924;-69
2020/12/16 02:03:07;;;;;;;;;;;7.20;99.90;;;;;;5094922;28;20365;-69
2020/12/16 02:05:33;;;;;;;;;;;7.20;99.90;;;;;;5095590;28;19932;-69
2020/12/16 02:08:01;;;;;;;;;;;7.20;99.90;;;;;;5095324;28;19932;-69
2020/12/16 02:10:27;;;;;;;;;;;7.20;99.90;;;;;;5094987;28;20389;-70
2020/12/16 02:12:53;;;;;;;;;;;7.20;99.90;;;;;;5095114;28;19931;-70
2020/12/16 02:15:19;;;;;;;;;;;7.20;99.90;;;;;;5095202;28;19936;-70
2020/12/16 02:17:45;;;;;;;;;;;7.20;99.90;;;;;;5094153;28;19928;-69
2020/12/16 02:20:12;;;;;;;;;;;7.20;99.90;;;;;;5093938;28;20388;-69
2020/12/16 02:22:39;;;;;;;;;;;7.20;99.90;;;;;;5094397;28;19924;-69
2020/12/16 02:25:06;;;;;;;;;;;7.20;99.90;;;;;;5094797;28;19924;-69
2020/12/16 02:27:33;;;;;;;;;;;7.20;99.90;;;;;;5094840;28;19931;-69
2020/12/16 02:29:59;;;;;;;;;;;7.20;99.90;;;;;;5094621;28;19958;-69
2020/12/16 02:32:26;;;;;;;;;;;7.20;99.90;;;;;;5094445;28;20396;-70
2020/12/16 02:34:52;;;;;;;;;;;7.20;99.90;;;;;;5094712;28;19924;-69
2020/12/16 02:37:18;;;;;;;;;;;7.20;99.90;;;;;;5094763;28;19954;-69
2020/12/16 02:39:45;;;;;;;;;;;7.30;99.90;;;;;;5094769;28;19923;-69
2020/12/16 02:42:14;;;;;;;;;;;7.30;99.90;;;;;;5094310;28;19924;-69
2020/12/16 02:44:40;;;;;;;;;;;7.30;99.90;;;;;;5094513;28;20384;-69
2020/12/16 02:47:06;;;;;;;;;;;7.30;99.90;;;;;;5094708;28;19924;-69
2020/12/16 02:49:32;;;;;;;;;;;7.30;99.90;;;;;;5094181;28;19924;-69
2020/12/16 02:51:59;;;;;;;;;;;7.30;99.90;;;;;;5094328;28;19928;-70
2020/12/16 02:54:25;;;;;;;;;;;7.40;99.90;;;;;;5094482;28;19928;-69
2020/12/16 02:56:52;;;;;;;;;;;7.30;99.90;;;;;;5094152;28;19950;-69
2020/12/16 02:59:21;;;;;;;;;;;7.30;99.90;;;;;;5094311;28;20285;-69
2020/12/16 03:01:47;;;;;;;;;;;7.30;99.90;;;;;;5094058;28;19924;-69
2020/12/16 03:04:13;;;;;;;;;;;7.30;99.90;;;;;;5094116;28;20388;-69
2020/12/16 03:06:39;;;;;;;;;;;7.30;99.90;;;;;;5094420;28;19931;-69
2020/12/16 03:09:05;;;;;;;;;;;7.40;99.90;;;;;;5094462;28;19928;-69
2020/12/16 03:11:31;;;;;;;;;;;7.40;99.90;;;;;;5094173;28;19931;-69
2020/12/16 03:13:57;;;;;;;;;;;7.40;99.90;;;;;;5093968;28;19983;-69
2020/12/16 03:16:24;;;;;;;;;;;7.40;99.90;;;;;;5093921;28;19924;-69
2020/12/16 03:18:50;;;;;;;;;;;7.40;99.90;;;;;;5093786;28;19931;-69
2020/12/16 03:21:23;;;;;;;;;;;7.40;99.90;;;;;;5093791;28;19931;-69
2020/12/16 03:23:49;;;;;;;;;;;7.40;99.90;;;;;;5093277;28;20014;-69
2020/12/16 03:26:15;;;;;;;;;;;7.40;99.90;;;;;;5093830;28;19928;-69
2020/12/16 03:28:41;;;;;;;;;;;7.40;99.90;;;;;;5093348;28;19931;-69
2020/12/16 03:31:07;;;;;;;;;;;7.40;99.90;;;;;;5093678;28;19925;-69
2020/12/16 03:33:34;;;;;;;;;;;7.40;99.90;;;;;;5093458;28;19935;-69
2020/12/16 03:36:00;;;;;;;;;;;7.40;99.90;;;;;;5110512;28;19980;-69
2020/12/16 03:38:26;;;;;;;;;;;7.50;99.90;;;;;;5114231;28;19924;-69
2020/12/16 03:40:52;;;;;;;;;;;7.50;99.90;;;;;;5114049;28;19924;-69
2020/12/16 03:43:18;;;;;;;;;;;7.50;99.90;;;;;;5113101;28;19945;-69
2020/12/16 03:45:44;;;;;;;;;;;7.40;99.90;;;;;;5113934;28;19923;-69
2020/12/16 03:48:10;;;;;;;;;;;7.40;99.90;;;;;;5109960;28;19924;-69
2020/12/16 03:50:36;;;;;;;;;;;7.50;99.90;;;;;;5093525;28;19958;-69
2020/12/16 03:53:02;;;;;;;;;;;7.50;99.90;;;;;;5101123;28;19931;-69
2020/12/16 03:55:29;;;;;;;;;;;7.50;99.90;;;;;;5113501;28;19931;-69
2020/12/16 03:57:54;;;;;;;;;;;7.40;99.90;;;;;;5113818;28;19924;-69
2020/12/16 04:00:20;;;;;;;;;;;7.40;99.90;;;;;;5113479;28;19931;-69
2020/12/16 04:02:46;;;;;;;;;;;7.50;99.90;;;;;;5113077;28;19976;-69
2020/12/16 04:05:12;;;;;;;;;;;7.40;99.90;;;;;;5113603;28;19931;-69
2020/12/16 04:07:39;;;;;;;;;;;7.40;99.90;;;;;;5101505;28;19931;-69
2020/12/16 04:10:05;;;;;;;;;;;7.40;99.90;;;;;;5092917;28;20415;-69
2020/12/16 04:12:31;;;;;;;;;;;7.40;99.90;;;;;;5092846;28;19924;-69
2020/12/16 04:14:57;;;;;;;;;;;7.50;99.90;;;;;;5093007;28;19924;-69
2020/12/16 04:17:23;;;;;;;;;;;7.40;99.90;;;;;;5097655;28;19935;-69
2020/12/16 04:19:49;;;;;;;;;;;7.40;99.90;;;;;;5108538;28;20396;-69
2020/12/16 04:22:15;;;;;;;;;;;7.40;99.90;;;;;;5107345;28;19927;-69
2020/12/16 04:24:42;;;;;;;;;;;7.50;99.90;;;;;;5113345;28;19931;-69
2020/12/16 04:27:08;;;;;;;;;;;7.50;99.90;;;;;;5113182;28;19996;-69
2020/12/16 04:29:34;;;;;;;;;;;7.50;99.90;;;;;;5097156;28;20296;-69
2020/12/16 04:32:00;;;;;;;;;;;7.50;99.90;;;;;;5092485;28;19925;-69
2020/12/16 04:34:26;;;;;;;;;;;7.50;99.90;;;;;;5092849;28;19981;-69
2020/12/16 04:36:52;;;;;;;;;;;7.50;99.90;;;;;;5092730;28;19928;-70
2020/12/16 04:39:18;;;;;;;;;;;7.50;99.90;;;;;;5092709;28;19924;-69
2020/12/16 04:41:45;;;;;;;;;;;7.50;99.90;;;;;;5091905;28;19931;-69
2020/12/16 04:44:12;;;;;;;;;;;7.60;99.90;;;;;;5092189;28;19968;-69
2020/12/16 04:46:39;;;;;;;;;;;7.60;99.90;;;;;;5092794;28;19924;-69
2020/12/16 04:49:06;;;;;;;;;;;7.60;99.90;;;;;;5104485;28;19970;-70
2020/12/16 04:51:33;;;;;;;;;;;7.60;99.90;;;;;;5092266;28;19924;-69
2020/12/16 04:53:59;;;;;;;;;;;7.50;99.90;;;;;;5092034;28;19931;-70
2020/12/16 04:56:25;;;;;;;;;;;7.50;99.90;;;;;;5092390;28;19935;-70
2020/12/16 04:58:54;;;;;;;;;;;7.50;99.90;;;;;;5092433;28;19924;-69
2020/12/16 05:01:20;;;;;;;;;;;7.50;99.90;;;;;;5092151;28;19928;-69
2020/12/16 05:03:46;;;;;;;;;;;7.60;99.90;;;;;;5091933;28;19974;-69
2020/12/16 05:06:12;;;;;;;;;;;7.60;99.90;;;;;;5092264;28;19947;-70
2020/12/16 05:08:38;;;;;;;;;;;7.60;99.90;;;;;;5092371;28;19924;-69
2020/12/16 05:11:05;;;;;;;;;;;7.60;99.90;;;;;;5092228;28;19925;-69
2020/12/16 05:13:31;;;;;;;;;;;7.60;99.90;;;;;;5091646;28;20284;-69
2020/12/16 05:16:01;;;;;;;;;;;7.50;99.90;;;;;;5092258;28;19924;-69
2020/12/16 05:18:28;;;;;;;;;;;7.50;99.90;;;;;;5092154;28;19932;-69
2020/12/16 05:20:54;;;;;;;;;;;7.50;99.90;;;;;;5091902;28;20409;-69
2020/12/16 05:23:24;;;;;;;;;;;7.50;99.90;;;;;;5091679;28;19924;-73
2020/12/16 05:25:56;;;;;;;;;;;7.50;99.90;;;;;;5092124;28;19977;-73
2020/12/16 05:28:25;;;;;;;;;;;7.60;99.90;;;;;;5091775;28;19924;-73
2020/12/16 05:30:53;;;;;;;;;;;7.60;99.90;;;;;;5091747;28;19931;-73
2020/12/16 05:33:20;;;;;;;;;;;7.60;99.90;;;;;;5091748;28;19931;-72
2020/12/16 05:35:50;;;;;;;;;;;7.60;99.90;;;;;;5091999;28;19935;-72
2020/12/16 05:38:16;;;;;;;;;;;7.60;99.90;;;;;;5091905;28;20370;-72
2020/12/16 05:40:43;;;;;;;;;;;7.60;99.90;;;;;;5092151;28;19969;-72
2020/12/16 05:43:09;;;;;;;;;;;7.60;99.90;;;;;;5091517;28;20304;-73
2020/12/16 05:45:37;;;;;;;;;;;7.60;99.90;;;;;;5092144;28;19931;-73
2020/12/16 05:48:04;;;;;;;;;;;7.60;99.90;;;;;;5092409;28;19928;-73
2020/12/16 05:50:33;;;;;;;;;;;7.60;99.90;;;;;;5091568;28;19924;-72
2020/12/16 05:53:20;;;;;;;;;;;7.60;99.90;;;;;;5093924;28;19924;-73
2020/12/16 05:55:49;;;;;;;;;;;7.60;99.90;;;;;;5090075;28;19932;-72
2020/12/16 05:58:16;;;;;;;;;;;7.60;99.90;;;;;;5095739;28;19924;-72
2020/12/16 06:00:43;;;;;;;;;;;7.60;99.90;;;;;;5095382;28;19924;-73
2020/12/16 06:03:13;;;;;;;;;;;7.60;99.90;;;;;;5094443;28;20388;-73
2020/12/16 06:05:40;;;;;;;;;;;7.60;99.90;;;;;;5095417;28;19924;-73
2020/12/16 06:08:07;;;;;;;;;;;7.60;99.90;;;;;;5095298;28;19931;-73
2020/12/16 06:10:34;;;;;;;;;;;7.60;99.90;;;;;;5095217;28;19924;-72
2020/12/16 06:13:03;;;;;;;;;;;7.60;99.90;;;;;;5094953;28;19924;-73
2020/12/16 06:15:32;;;;;;;;;;;7.60;99.90;;;;;;5095229;28;19928;-73
2020/12/16 06:18:01;;;;;;;;;;;7.60;99.90;;;;;;5095008;28;19931;-73
2020/12/16 06:20:35;;;;;;;;;;;7.60;99.90;;;;;;5094868;28;19924;-73
2020/12/16 06:23:03;;;;;;;;;;;7.60;99.90;;;;;;5094933;28;19924;-73
2020/12/16 06:25:32;;;;;;;;;;;7.70;99.90;;;;;;5094921;28;19924;-73
2020/12/16 06:27:59;;;;;;;;;;;7.70;99.90;;;;;;5094910;28;19931;-73
2020/12/16 06:30:27;;;;;;;;;;;7.70;99.90;;;;;;5094767;28;19932;-73
2020/12/16 06:33:01;;;;;;;;;;;7.70;99.90;;;;;;5094615;28;19928;-73
2020/12/16 06:35:27;;;;;;;;;;;7.70;99.90;;;;;;5094783;28;19931;-73
2020/12/16 06:38:15;;;;;;;;;;;7.70;99.90;;;;;;5094545;28;19954;-73
2020/12/16 06:40:43;;;;;;;;;;;7.70;99.90;;;;;;5094847;28;19924;-73
2020/12/16 06:43:24;;;;;;;;;;;7.80;99.90;;;;;;5094391;28;19950;-73
2020/12/16 06:45:50;;;;;;;;;;;7.70;99.90;;;;;;5092036;28;19925;-73
2020/12/16 06:48:31;;;;;;;;;;;7.70;99.90;;;;;;5106736;28;19928;-73
2020/12/16 06:51:11;;;;;;;;;;;7.70;99.90;;;;;;5114424;28;19946;-73
2020/12/16 06:53:37;;;;;;;;;;;7.70;99.90;;;;;;5101390;28;19931;-73
2020/12/16 06:56:07;;;;;;;;;;;7.70;99.90;;;;;;5094749;28;20558;-73
2020/12/16 06:58:37;;;;;;;;;;;7.70;99.90;;;;;;5095739;28;20316;-73
2020/12/16 07:01:12;;;;;;;;;;;7.70;99.90;;;;;;5094370;28;19946;-72
2020/12/16 07:03:38;;;;;;;;;;;7.70;99.90;;;;;;5093790;28;20266;-72
2020/12/16 07:06:04;;;;;;;;;;;7.70;99.90;;;;;;5094454;28;19977;-73
2020/12/16 07:08:30;;;;;;;;;;;7.70;99.90;;;;;;5094462;28;20004;-73
2020/12/16 07:10:56;;;;;;;;;;;7.70;99.90;;;;;;5094085;28;19995;-73
2020/12/16 07:13:24;;;;;;;;;;;7.80;99.90;;;;;;5094054;28;19924;-73
2020/12/16 07:16:09;;;;;;;;;;;7.80;99.90;;;;;;5094181;28;19939;-73
2020/12/16 07:18:42;;;;;;;;;;;7.80;99.90;;;;;;5112430;28;19963;-73
2020/12/16 07:21:16;;;;;;;;;;;7.80;99.90;;;;;;5113960;28;19930;-73
2020/12/16 07:23:42;;;;;;;;;;;7.80;99.90;;;;;;5114147;28;19924;-73
2020/12/16 07:26:08;;;;;;;;;;;7.80;99.90;;;;;;5114388;28;19924;-73
2020/12/16 07:28:37;;;;;;;;;;;7.80;99.90;;;;;;5093817;28;19924;-73
2020/12/16 07:31:04;;;;;;;;;;;7.80;99.90;;;;;;5093925;28;19924;-73
2020/12/16 07:33:30;;;;;;;;;;;7.80;99.90;;;;;;5094854;28;19924;-73
2020/12/16 07:35:58;;;;;;;;;;;7.80;99.90;;;;;;5093741;28;20076;-73
2020/12/16 07:38:24;;;;;;;;;;;7.80;99.90;;;;;;5093869;28;19971;-73
2020/12/16 07:40:51;;;;;;;;;;;7.80;99.90;;;;;;5093657;28;19924;-74
2020/12/16 07:43:18;;;;;;;;;;;7.80;99.90;;;;;;5094857;28;20109;-69
2020/12/16 07:45:44;;;;;;;;;;;7.90;99.90;;;;;;5105163;28;19932;-76
2020/12/16 07:48:13;;;;;;;;;;;7.90;99.90;;;;;;5094746;28;20316;-71
2020/12/16 07:50:40;;;;;;;;;;;7.90;99.90;;;;;;5093381;28;19924;-72
2020/12/16 07:53:06;;;;;;;;;;;8.00;99.90;;;;;;5093200;28;19967;-75
2020/12/16 07:55:37;;;;;;;;;;;8.00;99.90;;;;;;5093924;28;20368;-70
2020/12/16 07:58:06;;;;;;;;;;;8.10;99.90;;;;;;5093365;28;19963;-74
2020/12/16 08:00:32;;;;;;;;;;;8.10;99.90;;;;;;5104032;28;20293;-72
2020/12/16 08:03:00;;;;;;;;;;;8.00;99.90;;;;;;5113363;28;19924;-72
2020/12/16 08:05:26;;;;;;;;;;;8.00;99.90;;;;;;5113691;28;19927;-72
2020/12/16 08:07:53;;;;;;;;;;;8.10;99.90;;;;;;5105979;28;19931;-71
2020/12/16 08:10:22;;;;;;;;;;;8.10;99.90;;;;;;5093310;28;20022;-70
2020/12/16 08:12:53;;;;;;;;;;;8.10;99.90;;;;;;5092736;28;20296;-78
2020/12/16 08:15:19;;;;;;;;;;;8.10;99.90;;;;;;5092503;28;20042;-74
2020/12/16 08:17:46;;;;;;;;;;;8.10;99.90;;;;;;5093052;28;19935;-71
2020/12/16 08:20:14;;;;;;;;;;;8.20;99.90;;;;;;5092903;28;19924;-71
2020/12/16 08:22:40;;;;;;;;;;;8.20;99.90;;;;;;5092613;28;19930;-72
2020/12/16 08:25:10;;;;;;;;;;;8.20;99.90;;;;;;5092817;28;19935;-73
2020/12/16 08:27:36;;;;;;;;;;;8.20;99.90;;;;;;5092754;28;20547;-71
2020/12/16 08:30:03;;;;;;;;;;;8.20;99.90;;;;;;5092782;28;19941;-71
2020/12/16 08:32:30;;;;;;;;;;;8.30;99.90;;;;;;5100678;28;20296;-71
2020/12/16 08:34:57;;;;;;;;;;;8.40;99.90;;;;;;5101154;28;20300;-71
2020/12/16 08:37:24;;;;;;;;;;;8.40;99.90;;;;;;5093457;28;19924;-72
2020/12/16 08:39:51;;;;;;;;;;;8.40;99.90;;;;;;5094295;28;20147;-72
2020/12/16 08:42:26;;;;;;;;;;;8.40;99.90;;;;;;5092439;28;19925;-71
2020/12/16 08:44:52;;;;;;;;;;;8.30;99.90;;;;;;5092670;28;19924;-73
2020/12/16 08:47:23;;;;;;;;;;;8.30;99.90;;;;;;5092763;28;19924;-77
2020/12/16 08:49:49;;;;;;;;;;;8.40;99.90;;;;;;5092683;28;19924;-74
2020/12/16 08:52:15;;;;;;;;;;;8.40;99.90;;;;;;5093462;28;20122;-71
2020/12/16 08:54:44;;;;;;;;;;;8.40;99.90;;;;;;5110153;28;19976;-73
2020/12/16 08:57:11;;;;;;;;;;;8.40;99.90;;;;;;5112582;28;20421;-72
2020/12/16 08:59:37;;;;;;;;;;;8.50;99.90;;;;;;5112284;28;20368;-71
2020/12/16 09:02:08;;;;;;;;;;;8.50;99.90;;;;;;5112557;28;19938;-74
2020/12/16 09:04:35;;;;;;;;;;;8.60;99.90;;;;;;5112567;28;19977;-72
2020/12/16 09:07:02;;;;;;;;;;;8.60;99.90;;;;;;5104846;28;19928;-73
2020/12/16 09:09:28;;;;;;;;;;;8.70;99.90;;;;;;5092551;28;19977;-73
2020/12/16 09:11:54;;;;;;;;;;;8.80;99.90;;;;;;5092168;28;19924;-73
2020/12/16 09:14:21;;;;;;;;;;;8.90;99.90;;;;;;5101962;28;19992;-73
2020/12/16 09:16:47;;;;;;;;;;;9.00;99.90;;;;;;5112626;28;19935;-73
2020/12/16 09:19:19;;;;;;;;;;;9.00;99.90;;;;;;5112766;28;19977;-75
2020/12/16 09:21:46;;;;;;;;;;;9.10;99.90;;;;;;5111358;28;20139;-72
2020/12/16 09:24:12;;;;;;;;;;;9.10;99.90;;;;;;5091968;28;20099;-72
2020/12/16 09:26:40;;;;;;;;;;;9.20;99.90;;;;;;5092657;28;19924;-71
2020/12/16 09:29:23;;;;;;;;;;;9.30;99.90;;;;;;5096121;28;19928;-68
2020/12/16 09:31:50;;;;;;;;;;;9.40;99.90;;;;;;5095952;28;19924;-71
2020/12/16 09:34:17;;;;;;;;;;;9.50;99.90;;;;;;5096641;28;20019;-81
2020/12/16 09:36:43;;;;;;;;;;;9.60;99.90;;;;;;5099696;28;19973;-71
2020/12/16 09:39:09;;;;;;;;;;;9.60;99.90;;;;;;5116475;28;19927;-71
2020/12/16 09:41:42;;;;;;;;;;;9.60;99.90;;;;;;5116495;28;19923;-71
2020/12/16 09:44:22;;;;;;;;;;;9.70;99.90;;;;;;5115934;28;19923;-71
2020/12/16 09:46:48;;;;;;;;;;;9.70;99.90;;;;;;5116567;28;19924;-71
2020/12/16 09:49:17;;;;;;;;;;;9.70;99.90;;;;;;5116460;28;19931;-70
2020/12/16 09:51:43;;;;;;;;;;;9.70;99.90;;;;;;5101749;28;19982;-71
2020/12/16 09:54:09;;;;;;;;;;;9.70;99.90;;;;;;5095435;28;20296;-71
2020/12/16 09:56:35;;;;;;;;;;;9.60;99.90;;;;;;5099525;28;19923;-69
2020/12/16 09:59:02;;;;;;;;;;;9.50;99.90;;;;;;5116178;28;20292;-70
2020/12/16 10:01:29;;;;;;;;;;;9.50;99.90;;;;;;5114074;28;20411;-70
2020/12/16 10:03:55;;;;;;;;;;;9.40;99.90;;;;;;5115608;28;19924;-70
2020/12/16 10:06:21;;;;;;;;;;;9.40;99.90;;;;;;5116036;28;19931;-70
2020/12/16 10:08:47;;;;;;;;;;;9.40;99.90;;;;;;5115875;28;20384;-70
2020/12/16 10:11:13;;;;;;;;;;;9.50;99.90;;;;;;5115740;28;19928;-70
2020/12/16 10:13:39;;;;;;;;;;;9.60;99.90;;;;;;5115684;27;20331;-70
2020/12/16 10:16:07;;;;;;;;;;;9.60;99.90;;;;;;5114037;28;19928;-71
2020/12/16 10:18:34;;;;;;;;;;;9.50;99.90;;;;;;5115556;28;19924;-71
2020/12/16 10:21:00;;;;;;;;;;;9.60;99.90;;;;;;5115442;28;20368;-71
2020/12/16 10:23:26;;;;;;;;;;;9.50;99.90;;;;;;5104773;28;19928;-71
2020/12/16 10:25:52;;;;;;;;;;;9.60;99.90;;;;;;5095261;28;19925;-70
2020/12/16 10:28:21;;;;;;;;;;;9.60;99.90;;;;;;5095424;28;20001;-70
2020/12/16 10:30:47;;;;;;;;;;;9.60;99.90;;;;;;5094970;28;19924;-70
2020/12/16 10:33:13;;;;;;;;;;;9.70;99.90;;;;;;5094597;28;20373;-70
2020/12/16 10:35:40;;;;;;;;;;;9.70;99.90;;;;;;5094961;28;19936;-70
2020/12/16 10:38:06;;;;;;;;;;;9.70;99.90;;;;;;5094369;28;20400;-70
2020/12/16 10:40:32;;;;;;;;;;;9.80;99.90;;;;;;5094369;28;19924;-70
2020/12/16 10:42:59;;;;;;;;;;;9.80;99.90;;;;;;5094260;28;20430;-70
2020/12/16 10:45:26;;;;;;;;;;;9.70;99.90;;;;;;5095001;28;19935;-71
2020/12/16 10:47:57;;;;;;;;;;;9.70;99.90;;;;;;5094769;28;19931;-70
2020/12/16 10:50:23;;;;;;;;;;;9.60;99.90;;;;;;5094707;28;19947;-70
2020/12/16 10:52:50;;;;;;;;;;;9.60;99.90;;;;;;5094344;28;19967;-71
2020/12/16 10:55:16;;;;;;;;;;;9.60;99.90;;;;;;5094498;28;19943;-70
2020/12/16 10:57:42;;;;;;;;;;;9.70;99.90;;;;;;5094767;28;19977;-70
2020/12/16 11:00:08;;;;;;;;;;;9.70;99.90;;;;;;5094353;28;20399;-70
2020/12/16 11:02:34;;;;;;;;;;;9.70;99.90;;;;;;5094275;28;19924;-70
2020/12/16 11:05:01;;;;;;;;;;;9.80;99.90;;;;;;5094414;28;19931;-70
2020/12/16 11:07:27;;;;;;;;;;;9.80;99.90;;;;;;5094282;28;19924;-69
2020/12/16 11:09:53;;;;;;;;;;;9.80;99.90;;;;;;5094578;28;19931;-70
2020/12/16 11:12:19;;;;;;;;;;;9.80;99.90;;;;;;5094319;28;19931;-73
2020/12/16 11:14:45;;;;;;;;;;;9.80;99.90;;;;;;5094339;28;19924;-74
2020/12/16 11:17:11;;;;;;;;;;;9.80;99.90;;;;;;5094279;28;19924;-73
2020/12/16 11:19:37;;;;;;;;;;;9.80;99.90;;;;;;5094033;28;19931;-70
2020/12/16 11:22:04;;;;;;;;;;;9.70;99.90;;;;;;5093575;28;19932;-70
2020/12/16 11:24:30;;;;;;;;;;;9.70;99.90;;;;;;5093558;28;20041;-69
2020/12/16 11:26:56;;;;;;;;;;;9.70;99.90;;;;;;5093429;28;20390;-69
2020/12/16 11:29:23;;;;;;;;;;;9.90;99.90;;;;;;5093141;28;19924;-69
2020/12/16 11:31:50;;;;;;;;;;;9.80;99.90;;;;;;5093222;28;19924;-69
2020/12/16 11:34:17;;;;;;;;;;;9.90;99.90;;;;;;5092953;28;19928;-70
2020/12/16 11:36:44;;;;;;;;;;;9.90;99.90;;;;;;5093184;28;20312;-69
2020/12/16 11:39:11;;;;;;;;;;;10.00;99.90;;;;;;5093735;28;19931;-69
2020/12/16 11:41:41;;;;;;;;;;;10.00;99.90;;;;;;5093284;28;19974;-70
2020/12/16 11:44:07;;;;;;;;;;;10.00;99.90;;;;;;5092710;28;19928;-69
2020/12/16 11:46:33;;;;;;;;;;;10.10;99.90;;;;;;5092920;28;19931;-70
2020/12/16 11:48:59;;;;;;;;;;;10.10;99.90;;;;;;5093512;28;19948;-71
2020/12/16 11:51:25;;;;;;;;;;;10.20;99.90;;;;;;5093253;28;19973;-71
2020/12/16 11:53:51;;;;;;;;;;;10.10;99.90;;;;;;5093361;28;19931;-71
2020/12/16 11:56:18;;;;;;;;;;;10.00;99.90;;;;;;5093539;28;19924;-71
2020/12/16 11:58:44;;;;;;;;;;;10.00;99.90;;;;;;5093512;28;19932;-71
2020/12/16 12:01:10;;;;;;;;;;;10.00;99.90;;;;;;5093224;28;19947;-71
2020/12/16 12:03:37;;;;;;;;;;;9.90;99.90;;;;;;5093014;28;19931;-71
2020/12/16 12:06:03;;;;;;;;;;;9.90;99.90;;;;;;5093148;28;19930;-71
2020/12/16 12:08:29;;;;;;;;;;;9.90;99.90;;;;;;5093430;28;19924;-71
2020/12/16 12:10:54;;;;;;;;;;;9.80;99.90;;;;;;5093257;28;19924;-71
2020/12/16 12:13:21;;;;;;;;;;;9.70;99.90;;;;;;5092891;28;19925;-71
2020/12/16 12:15:47;;;;;;;;;;;9.60;99.90;;;;;;5093095;28;19924;-70
2020/12/16 12:18:13;;;;;;;;;;;9.60;99.90;;;;;;5092999;28;19931;-71
2020/12/16 12:20:39;;;;;;;;;;;9.60;99.90;;;;;;5092783;28;19928;-70
2020/12/16 12:23:05;;;;;;;;;;;9.60;99.90;;;;;;5092654;28;19924;-70
2020/12/16 12:25:31;;;;;;;;;;;9.60;99.90;;;;;;5093081;28;19925;-70
2020/12/16 12:27:57;;;;;;;;;;;9.60;99.90;;;;;;5092892;28;19924;-70
2020/12/16 12:30:24;;;;;;;;;;;9.60;99.90;;;;;;5092713;28;19970;-70
2020/12/16 12:32:50;;;;;;;;;;;9.70;99.90;;;;;;5092539;28;19970;-70
2020/12/16 12:35:16;;;;;;;;;;;9.70;99.90;;;;;;5092835;28;19924;-70
2020/12/16 12:37:42;;;;;;;;;;;9.70;99.90;;;;;;5092688;28;19924;-70
2020/12/16 12:40:08;;;;;;;;;;;9.60;99.90;;;;;;5092716;28;19924;-70
2020/12/16 12:42:34;;;;;;;;;;;9.60;99.90;;;;;;5092538;28;19924;-70
2020/12/16 12:45:00;;;;;;;;;;;9.60;99.90;;;;;;5092344;28;19931;-70
2020/12/16 12:47:27;;;;;;;;;;;9.60;99.90;;;;;;5092578;28;19935;-70
2020/12/16 12:49:53;;;;;;;;;;;9.50;99.90;;;;;;5092672;28;19924;-70
2020/12/16 12:52:19;;;;;;;;;;;9.60;99.90;;;;;;5092399;28;19924;-71
2020/12/16 12:54:45;;;;;;;;;;;9.60;99.90;;;;;;5092509;28;19931;-71
2020/12/16 12:57:11;;;;;;;;;;;9.70;99.90;;;;;;5092440;28;20380;-70
2020/12/16 12:59:37;;;;;;;;;;;9.70;99.90;;;;;;5092302;28;19928;-70
2020/12/16 13:02:03;;;;;;;;;;;9.70;99.90;;;;;;5091557;28;20010;-71
2020/12/16 13:04:31;;;;;;;;;;;9.80;99.90;;;;;;5093703;28;20015;-71
2020/12/16 13:06:57;;;;;;;;;;;9.80;99.90;;;;;;5092366;28;20350;-75
2020/12/16 13:09:23;;;;;;;;;;;9.80;99.90;;;;;;5092416;28;20322;-74
2020/12/16 13:11:49;;;;;;;;;;;9.80;99.90;;;;;;5092399;28;19931;-73
2020/12/16 13:14:15;;;;;;;;;;;9.80;99.90;;;;;;5091962;28;19977;-74
2020/12/16 13:16:42;;;;;;;;;;;9.90;99.90;;;;;;5092102;28;19932;-74
2020/12/16 13:19:10;;;;;;;;;;;9.90;99.90;;;;;;5092417;28;20269;-75
2020/12/16 13:21:37;;;;;;;;;;;10.00;99.90;;;;;;5092245;28;20346;-74
2020/12/16 13:24:03;;;;;;;;;;;10.10;99.90;;;;;;5091858;28;20446;-70
2020/12/16 13:26:29;;;;;;;;;;;10.10;99.90;;;;;;5092142;28;19928;-70
2020/12/16 13:28:55;;;;;;;;;;;10.20;99.90;;;;;;5092181;28;20380;-70
2020/12/16 13:31:21;;;;;;;;;;;10.20;99.90;;;;;;5092013;28;19924;-71
2020/12/16 13:33:47;;;;;;;;;;;10.10;99.90;;;;;;5092017;28;19931;-69
2020/12/16 13:36:13;;;;;;;;;;;10.10;99.90;;;;;;5092017;28;19970;-71
2020/12/16 13:38:39;;;;;;;;;;;10.00;99.90;;;;;;5092234;28;19924;-71
2020/12/16 13:41:06;;;;;;;;;;;10.00;99.90;;;;;;5092058;28;19931;-71
2020/12/16 13:43:32;;;;;;;;;;;9.90;99.90;;;;;;5091572;28;20372;-71
2020/12/16 13:45:58;;;;;;;;;;;9.70;99.90;;;;;;5091838;28;19924;-71
2020/12/16 13:48:24;;;;;;;;;;;9.70;99.90;;;;;;5092153;28;20517;-71
2020/12/16 13:50:50;;;;;;;;;;;9.70;99.90;;;;;;5091969;28;19924;-71
2020/12/16 13:53:16;;;;;;;;;;;9.60;99.90;;;;;;5091546;28;19924;-71
2020/12/16 13:55:43;;;;;;;;;;;9.50;99.90;;;;;;5091982;28;19924;-71
2020/12/16 13:58:08;;;;;;;;;;;9.50;99.90;;;;;;5091844;28;20045;-70
2020/12/16 14:00:35;;;;;;;;;;;9.50;99.90;;;;;;5091632;28;19939;-70
2020/12/16 14:03:09;;;;;;;;;;;9.50;99.90;;;;;;5091417;28;19924;-71
2020/12/16 14:05:35;;;;;;;;;;;9.40;99.90;;;;;;5092022;28;19928;-70
2020/12/16 14:08:02;;;;;;;;;;;9.40;99.90;;;;;;5091719;28;19931;-70
2020/12/16 14:10:28;;;;;;;;;;;9.40;99.90;;;;;;5091708;28;20376;-71
2020/12/16 14:12:55;;;;;;;;;;;9.40;99.90;;;;;;5091395;28;19924;-70
2020/12/16 14:15:21;;;;;;;;;;;9.40;99.90;;;;;;5094888;28;19924;-69
2020/12/16 14:17:47;;;;;;;;;;;9.30;99.90;;;;;;5095527;28;19931;-70
2020/12/16 14:20:13;;;;;;;;;;;9.20;99.90;;;;;;5095298;28;20440;-70
2020/12/16 14:22:39;;;;;;;;;;;9.20;99.90;;;;;;5095182;28;19923;-70
2020/12/16 14:25:05;;;;;;;;;;;9.20;99.90;;;;;;5095050;28;20273;-69
2020/12/16 14:27:31;;;;;;;;;;;9.10;99.90;;;;;;5095031;28;19931;-69